sensor_id;sensor_type;location;lat;lon;timestamp;P1;durP1;ratioP1;P2;durP2;ratioP2
4186;SDS011;2107;52.306;10.484;2023-02-15T00:00:34;0.00;;;0.00;;
4186;SDS011;2107;52.306;10.484;2023-02-15T00:03:02;0.00;;;0.00;;
4186;SDS011;2107;52.306;10.484;2023-02-15T00:05:30;0.00;;;0.00;;
4186;SDS011;2107;52.306;10.484;2023-02-15T00:07:57;0.00;;;0.00;;
4186;SDS011;2107;52.306;10.484;2023-02-15T00:10:24;0.00;;;0.00;;
4186;SDS011;2107;52.306;10.484;2023-02-15T00:12:51;0.00;;;0.00;;
4186;SDS011;2107;52.306;10.484;2023-02-15T00:15:18;0.00;;;0.00;;
4186;SDS011;2107;52.306;10.484;2023-02-15T00:17:44;0.00;;;0.00;;
4186;SDS011;2107;52.306;10.484;2023-02-15T00:20:13;0.00;;;0.00;;
4186;SDS011;2107;52.306;10.484;2023-02-15T00:22:39;0.00;;;0.00;;
4186;SDS011;2107;52.306;10.484;2023-02-15T00:25:06;0.00;;;0.00;;
4186;SDS011;2107;52.306;10.484;2023-02-15T00:27:33;0.00;;;0.00;;
4186;SDS011;2107;52.306;10.484;2023-02-15T00:30:00;0.00;;;0.00;;
4186;SDS011;2107;52.306;10.484;2023-02-15T00:32:27;0.00;;;0.00;;
4186;SDS011;2107;52.306;10.484;2023-02-15T00:34:54;0.00;;;0.00;;
4186;SDS011;2107;52.306;10.484;2023-02-15T00:37:22;0.00;;;0.00;;
4186;SDS011;2107;52.306;10.484;2023-02-15T00:39:49;0.00;;;0.00;;
4186;SDS011;2107;52.306;10.484;2023-02-15T00:42:15;0.00;;;0.00;;
4186;SDS011;2107;52.306;10.484;2023-02-15T00:44:42;0.00;;;0.00;;
4186;SDS011;2107;52.306;10.484;2023-02-15T00:47:09;0.00;;;0.00;;
4186;SDS011;2107;52.306;10.484;2023-02-15T00:49:36;0.00;;;0.00;;
4186;SDS011;2107;52.306;10.484;2023-02-15T00:52:03;0.00;;;0.00;;
4186;SDS011;2107;52.306;10.484;2023-02-15T00:54:31;0.00;;;0.00;;
4186;SDS011;2107;52.306;10.484;2023-02-15T00:56:59;0.00;;;0.00;;
4186;SDS011;2107;52.306;10.484;2023-02-15T00:59:26;0.00;;;0.00;;
4186;SDS011;2107;52.306;10.484;2023-02-15T01:01:53;0.00;;;0.00;;
4186;SDS011;2107;52.306;10.484;2023-02-15T01:04:20;0.00;;;0.00;;
4186;SDS011;2107;52.306;10.484;2023-02-15T01:06:46;0.00;;;0.00;;
4186;SDS011;2107;52.306;10.484;2023-02-15T01:09:13;0.00;;;0.00;;
4186;SDS011;2107;52.306;10.484;2023-02-15T01:11:41;0.00;;;0.00;;
4186;SDS011;2107;52.306;10.484;2023-02-15T01:14:08;0.00;;;0.00;;
4186;SDS011;2107;52.306;10.484;2023-02-15T01:16:36;0.00;;;0.00;;
4186;SDS011;2107;52.306;10.484;2023-02-15T01:19:02;0.00;;;0.00;;
4186;SDS011;2107;52.306;10.484;2023-02-15T01:21:29;0.00;;;0.00;;
4186;SDS011;2107;52.306;10.484;2023-02-15T01:23:59;0.00;;;0.00;;
4186;SDS011;2107;52.306;10.484;2023-02-15T01:26:26;0.00;;;0.00;;
4186;SDS011;2107;52.306;10.484;2023-02-15T01:28:54;0.00;;;0.00;;
4186;SDS011;2107;52.306;10.484;2023-02-15T01:31:22;0.00;;;0.00;;
4186;SDS011;2107;52.306;10.484;2023-02-15T01:33:49;0.00;;;0.00;;
4186;SDS011;2107;52.306;10.484;2023-02-15T01:36:16;0.00;;;0.00;;
4186;SDS011;2107;52.306;10.484;2023-02-15T01:38:43;0.00;;;0.00;;
4186;SDS011;2107;52.306;10.484;2023-02-15T01:41:09;0.00;;;0.00;;
4186;SDS011;2107;52.306;10.484;2023-02-15T01:43:52;0.00;;;0.00;;
4186;SDS011;2107;52.306;10.484;2023-02-15T01:46:24;0.00;;;0.00;;
4186;SDS011;2107;52.306;10.484;2023-02-15T01:48:56;0.00;;;0.00;;
4186;SDS011;2107;52.306;10.484;2023-02-15T01:51:27;0.00;;;0.00;;
4186;SDS011;2107;52.306;10.484;2023-02-15T01:53:57;0.00;;;0.00;;
4186;SDS011;2107;52.306;10.484;2023-02-15T01:56:28;0.00;;;0.00;;
4186;SDS011;2107;52.306;10.484;2023-02-15T01:59:02;0.00;;;0.00;;
4186;SDS011;2107;52.306;10.484;2023-02-15T02:01:32;0.00;;;0.00;;
4186;SDS011;2107;52.306;10.484;2023-02-15T02:04:00;0.00;;;0.00;;
4186;SDS011;2107;52.306;10.484;2023-02-15T02:06:33;0.00;;;0.00;;
4186;SDS011;2107;52.306;10.484;2023-02-15T02:09:03;0.00;;;0.00;;
4186;SDS011;2107;52.306;10.484;2023-02-15T02:11:30;0.00;;;0.00;;
4186;SDS011;2107;52.306;10.484;2023-02-15T02:13:57;0.00;;;0.00;;
4186;SDS011;2107;52.306;10.484;2023-02-15T02:16:27;0.00;;;0.00;;
4186;SDS011;2107;52.306;10.484;2023-02-15T02:19:09;0.00;;;0.00;;
4186;SDS011;2107;52.306;10.484;2023-02-15T02:22:06;0.00;;;0.00;;
4186;SDS011;2107;52.306;10.484;2023-02-15T02:25:10;0.00;;;0.00;;
4186;SDS011;2107;52.306;10.484;2023-02-15T02:27:49;0.00;;;0.00;;
4186;SDS011;2107;52.306;10.484;2023-02-15T02:30:30;0.00;;;0.00;;
4186;SDS011;2107;52.306;10.484;2023-02-15T02:36:19;0.00;;;0.00;;
4186;SDS011;2107;52.306;10.484;2023-02-15T02:38:55;0.00;;;0.00;;
4186;SDS011;2107;52.306;10.484;2023-02-15T02:41:42;0.00;;;0.00;;
4186;SDS011;2107;52.306;10.484;2023-02-15T02:44:16;0.00;;;0.00;;
4186;SDS011;2107;52.306;10.484;2023-02-15T02:46:51;0.00;;;0.00;;
4186;SDS011;2107;52.306;10.484;2023-02-15T02:49:31;0.00;;;0.00;;
4186;SDS011;2107;52.306;10.484;2023-02-15T02:52:00;0.00;;;0.00;;
4186;SDS011;2107;52.306;10.484;2023-02-15T02:54:27;0.00;;;0.00;;
4186;SDS011;2107;52.306;10.484;2023-02-15T02:56:55;0.00;;;0.00;;
4186;SDS011;2107;52.306;10.484;2023-02-15T02:59:26;0.00;;;0.00;;
4186;SDS011;2107;52.306;10.484;2023-02-15T03:01:57;0.00;;;0.00;;
4186;SDS011;2107;52.306;10.484;2023-02-15T03:04:31;0.00;;;0.00;;
4186;SDS011;2107;52.306;10.484;2023-02-15T03:07:01;0.00;;;0.00;;
4186;SDS011;2107;52.306;10.484;2023-02-15T03:09:31;0.00;;;0.00;;
4186;SDS011;2107;52.306;10.484;2023-02-15T03:12:06;0.00;;;0.00;;
4186;SDS011;2107;52.306;10.484;2023-02-15T03:14:35;0.00;;;0.00;;
4186;SDS011;2107;52.306;10.484;2023-02-15T03:17:02;0.00;;;0.00;;
4186;SDS011;2107;52.306;10.484;2023-02-15T03:19:33;0.00;;;0.00;;
4186;SDS011;2107;52.306;10.484;2023-02-15T03:22:03;0.00;;;0.00;;
4186;SDS011;2107;52.306;10.484;2023-02-15T03:24:34;0.00;;;0.00;;
4186;SDS011;2107;52.306;10.484;2023-02-15T03:27:04;0.00;;;0.00;;
4186;SDS011;2107;52.306;10.484;2023-02-15T03:29:35;0.00;;;0.00;;
4186;SDS011;2107;52.306;10.484;2023-02-15T03:32:04;0.00;;;0.00;;
4186;SDS011;2107;52.306;10.484;2023-02-15T03:34:35;0.00;;;0.00;;
4186;SDS011;2107;52.306;10.484;2023-02-15T03:37:04;0.00;;;0.00;;
4186;SDS011;2107;52.306;10.484;2023-02-15T03:39:38;0.00;;;0.00;;
4186;SDS011;2107;52.306;10.484;2023-02-15T03:42:09;0.00;;;0.00;;
4186;SDS011;2107;52.306;10.484;2023-02-15T03:44:41;0.00;;;0.00;;
4186;SDS011;2107;52.306;10.484;2023-02-15T03:47:17;0.00;;;0.00;;
4186;SDS011;2107;52.306;10.484;2023-02-15T03:49:48;0.00;;;0.00;;
4186;SDS011;2107;52.306;10.484;2023-02-15T03:52:19;0.00;;;0.00;;
4186;SDS011;2107;52.306;10.484;2023-02-15T03:54:47;0.00;;;0.00;;
4186;SDS011;2107;52.306;10.484;2023-02-15T03:57:16;0.00;;;0.00;;
4186;SDS011;2107;52.306;10.484;2023-02-15T04:00:04;0.00;;;0.00;;
4186;SDS011;2107;52.306;10.484;2023-02-15T04:02:58;0.00;;;0.00;;
4186;SDS011;2107;52.306;10.484;2023-02-15T04:05:36;0.00;;;0.00;;
4186;SDS011;2107;52.306;10.484;2023-02-15T04:08:03;0.00;;;0.00;;
4186;SDS011;2107;52.306;10.484;2023-02-15T04:10:30;0.00;;;0.00;;
4186;SDS011;2107;52.306;10.484;2023-02-15T04:13:14;0.00;;;0.00;;
4186;SDS011;2107;52.306;10.484;2023-02-15T04:15:41;0.00;;;0.00;;
4186;SDS011;2107;52.306;10.484;2023-02-15T04:18:35;0.00;;;0.00;;
4186;SDS011;2107;52.306;10.484;2023-02-15T04:21:22;0.00;;;0.00;;
4186;SDS011;2107;52.306;10.484;2023-02-15T04:24:08;0.00;;;0.00;;
4186;SDS011;2107;52.306;10.484;2023-02-15T04:26:53;0.00;;;0.00;;
4186;SDS011;2107;52.306;10.484;2023-02-15T04:29:21;0.00;;;0.00;;
4186;SDS011;2107;52.306;10.484;2023-02-15T04:31:49;0.00;;;0.00;;
4186;SDS011;2107;52.306;10.484;2023-02-15T04:34:16;0.00;;;0.00;;
4186;SDS011;2107;52.306;10.484;2023-02-15T04:36:44;0.00;;;0.00;;
4186;SDS011;2107;52.306;10.484;2023-02-15T04:39:12;0.00;;;0.00;;
4186;SDS011;2107;52.306;10.484;2023-02-15T04:41:39;0.00;;;0.00;;
4186;SDS011;2107;52.306;10.484;2023-02-15T04:44:06;0.00;;;0.00;;
4186;SDS011;2107;52.306;10.484;2023-02-15T04:46:33;0.00;;;0.00;;
4186;SDS011;2107;52.306;10.484;2023-02-15T04:49:00;0.00;;;0.00;;
4186;SDS011;2107;52.306;10.484;2023-02-15T04:51:27;0.00;;;0.00;;
4186;SDS011;2107;52.306;10.484;2023-02-15T04:53:56;0.00;;;0.00;;
4186;SDS011;2107;52.306;10.484;2023-02-15T04:56:23;0.00;;;0.00;;
4186;SDS011;2107;52.306;10.484;2023-02-15T04:58:49;0.00;;;0.00;;
4186;SDS011;2107;52.306;10.484;2023-02-15T05:01:16;0.00;;;0.00;;
4186;SDS011;2107;52.306;10.484;2023-02-15T05:03:43;0.00;;;0.00;;
4186;SDS011;2107;52.306;10.484;2023-02-15T05:06:10;0.00;;;0.00;;
4186;SDS011;2107;52.306;10.484;2023-02-15T05:08:37;0.00;;;0.00;;
4186;SDS011;2107;52.306;10.484;2023-02-15T05:11:05;0.00;;;0.00;;
4186;SDS011;2107;52.306;10.484;2023-02-15T05:13:32;0.00;;;0.00;;
4186;SDS011;2107;52.306;10.484;2023-02-15T05:15:59;0.00;;;0.00;;
4186;SDS011;2107;52.306;10.484;2023-02-15T05:18:25;0.00;;;0.00;;
4186;SDS011;2107;52.306;10.484;2023-02-15T05:20:52;0.00;;;0.00;;
4186;SDS011;2107;52.306;10.484;2023-02-15T05:23:19;0.00;;;0.00;;
4186;SDS011;2107;52.306;10.484;2023-02-15T05:25:46;0.00;;;0.00;;
4186;SDS011;2107;52.306;10.484;2023-02-15T05:28:33;0.00;;;0.00;;
4186;SDS011;2107;52.306;10.484;2023-02-15T05:31:02;0.00;;;0.00;;
4186;SDS011;2107;52.306;10.484;2023-02-15T05:33:31;0.00;;;0.00;;
4186;SDS011;2107;52.306;10.484;2023-02-15T05:35:58;0.00;;;0.00;;
4186;SDS011;2107;52.306;10.484;2023-02-15T05:38:26;0.00;;;0.00;;
4186;SDS011;2107;52.306;10.484;2023-02-15T05:40:52;0.00;;;0.00;;
4186;SDS011;2107;52.306;10.484;2023-02-15T05:43:20;0.00;;;0.00;;
4186;SDS011;2107;52.306;10.484;2023-02-15T05:45:49;0.00;;;0.00;;
4186;SDS011;2107;52.306;10.484;2023-02-15T05:48:16;0.00;;;0.00;;
4186;SDS011;2107;52.306;10.484;2023-02-15T05:50:44;0.00;;;0.00;;
4186;SDS011;2107;52.306;10.484;2023-02-15T05:53:11;0.00;;;0.00;;
4186;SDS011;2107;52.306;10.484;2023-02-15T05:55:38;0.00;;;0.00;;
4186;SDS011;2107;52.306;10.484;2023-02-15T05:58:05;0.00;;;0.00;;
4186;SDS011;2107;52.306;10.484;2023-02-15T06:00:32;0.00;;;0.00;;
4186;SDS011;2107;52.306;10.484;2023-02-15T06:03:01;0.00;;;0.00;;
4186;SDS011;2107;52.306;10.484;2023-02-15T06:05:28;0.00;;;0.00;;
4186;SDS011;2107;52.306;10.484;2023-02-15T06:07:55;0.00;;;0.00;;
4186;SDS011;2107;52.306;10.484;2023-02-15T06:10:21;0.00;;;0.00;;
4186;SDS011;2107;52.306;10.484;2023-02-15T06:12:48;0.00;;;0.00;;
4186;SDS011;2107;52.306;10.484;2023-02-15T06:15:15;0.00;;;0.00;;
4186;SDS011;2107;52.306;10.484;2023-02-15T06:17:42;0.00;;;0.00;;
4186;SDS011;2107;52.306;10.484;2023-02-15T06:20:11;0.00;;;0.00;;
4186;SDS011;2107;52.306;10.484;2023-02-15T06:22:38;0.00;;;0.00;;
4186;SDS011;2107;52.306;10.484;2023-02-15T06:25:05;0.00;;;0.00;;
4186;SDS011;2107;52.306;10.484;2023-02-15T06:27:35;0.00;;;0.00;;
4186;SDS011;2107;52.306;10.484;2023-02-15T06:30:02;0.00;;;0.00;;
4186;SDS011;2107;52.306;10.484;2023-02-15T06:32:30;0.00;;;0.00;;
4186;SDS011;2107;52.306;10.484;2023-02-15T06:34:57;0.00;;;0.00;;
4186;SDS011;2107;52.306;10.484;2023-02-15T06:37:25;0.00;;;0.00;;
4186;SDS011;2107;52.306;10.484;2023-02-15T06:39:52;0.00;;;0.00;;
4186;SDS011;2107;52.306;10.484;2023-02-15T06:42:19;0.00;;;0.00;;
4186;SDS011;2107;52.306;10.484;2023-02-15T06:44:47;0.00;;;0.00;;
4186;SDS011;2107;52.306;10.484;2023-02-15T06:47:13;0.00;;;0.00;;
4186;SDS011;2107;52.306;10.484;2023-02-15T06:49:40;0.00;;;0.00;;
4186;SDS011;2107;52.306;10.484;2023-02-15T06:52:07;0.00;;;0.00;;
4186;SDS011;2107;52.306;10.484;2023-02-15T06:54:35;0.00;;;0.00;;
4186;SDS011;2107;52.306;10.484;2023-02-15T06:57:02;0.00;;;0.00;;
4186;SDS011;2107;52.306;10.484;2023-02-15T06:59:29;0.00;;;0.00;;
4186;SDS011;2107;52.306;10.484;2023-02-15T07:01:56;0.00;;;0.00;;
4186;SDS011;2107;52.306;10.484;2023-02-15T07:04:23;0.00;;;0.00;;
4186;SDS011;2107;52.306;10.484;2023-02-15T07:06:50;0.00;;;0.00;;
4186;SDS011;2107;52.306;10.484;2023-02-15T07:09:17;0.00;;;0.00;;
4186;SDS011;2107;52.306;10.484;2023-02-15T07:11:45;0.00;;;0.00;;
4186;SDS011;2107;52.306;10.484;2023-02-15T07:14:29;0.00;;;0.00;;
4186;SDS011;2107;52.306;10.484;2023-02-15T07:16:56;0.00;;;0.00;;
4186;SDS011;2107;52.306;10.484;2023-02-15T07:19:23;0.00;;;0.00;;
4186;SDS011;2107;52.306;10.484;2023-02-15T07:21:51;0.00;;;0.00;;
4186;SDS011;2107;52.306;10.484;2023-02-15T07:24:17;0.00;;;0.00;;
4186;SDS011;2107;52.306;10.484;2023-02-15T07:26:46;0.00;;;0.00;;
4186;SDS011;2107;52.306;10.484;2023-02-15T07:29:12;0.00;;;0.00;;
4186;SDS011;2107;52.306;10.484;2023-02-15T07:31:40;0.00;;;0.00;;
4186;SDS011;2107;52.306;10.484;2023-02-15T07:34:08;0.00;;;0.00;;
4186;SDS011;2107;52.306;10.484;2023-02-15T07:36:35;0.00;;;0.00;;
4186;SDS011;2107;52.306;10.484;2023-02-15T07:39:02;0.00;;;0.00;;
4186;SDS011;2107;52.306;10.484;2023-02-15T07:41:28;0.00;;;0.00;;
4186;SDS011;2107;52.306;10.484;2023-02-15T07:43:57;0.00;;;0.00;;
4186;SDS011;2107;52.306;10.484;2023-02-15T07:46:23;0.00;;;0.00;;
4186;SDS011;2107;52.306;10.484;2023-02-15T07:48:50;0.00;;;0.00;;
4186;SDS011;2107;52.306;10.484;2023-02-15T07:51:17;0.00;;;0.00;;
4186;SDS011;2107;52.306;10.484;2023-02-15T07:53:44;0.00;;;0.00;;
4186;SDS011;2107;52.306;10.484;2023-02-15T07:56:12;0.00;;;0.00;;
4186;SDS011;2107;52.306;10.484;2023-02-15T07:58:40;0.00;;;0.00;;
4186;SDS011;2107;52.306;10.484;2023-02-15T08:01:22;0.00;;;0.00;;
4186;SDS011;2107;52.306;10.484;2023-02-15T08:03:50;0.00;;;0.00;;
4186;SDS011;2107;52.306;10.484;2023-02-15T08:06:17;0.00;;;0.00;;
4186;SDS011;2107;52.306;10.484;2023-02-15T08:08:44;0.00;;;0.00;;
4186;SDS011;2107;52.306;10.484;2023-02-15T08:11:15;0.00;;;0.00;;
4186;SDS011;2107;52.306;10.484;2023-02-15T08:13:59;0.00;;;0.00;;
4186;SDS011;2107;52.306;10.484;2023-02-15T08:16:31;0.00;;;0.00;;
4186;SDS011;2107;52.306;10.484;2023-02-15T08:19:00;0.00;;;0.00;;
4186;SDS011;2107;52.306;10.484;2023-02-15T08:21:30;0.00;;;0.00;;
4186;SDS011;2107;52.306;10.484;2023-02-15T08:23:57;0.00;;;0.00;;
4186;SDS011;2107;52.306;10.484;2023-02-15T08:26:25;0.00;;;0.00;;
4186;SDS011;2107;52.306;10.484;2023-02-15T08:28:53;0.00;;;0.00;;
4186;SDS011;2107;52.306;10.484;2023-02-15T08:31:21;0.00;;;0.00;;
4186;SDS011;2107;52.306;10.484;2023-02-15T08:33:50;0.00;;;0.00;;
4186;SDS011;2107;52.306;10.484;2023-02-15T08:36:19;0.00;;;0.00;;
4186;SDS011;2107;52.306;10.484;2023-02-15T08:38:47;0.00;;;0.00;;
4186;SDS011;2107;52.306;10.484;2023-02-15T08:41:15;0.00;;;0.00;;
4186;SDS011;2107;52.306;10.484;2023-02-15T08:43:44;0.00;;;0.00;;
4186;SDS011;2107;52.306;10.484;2023-02-15T08:46:12;0.00;;;0.00;;
4186;SDS011;2107;52.306;10.484;2023-02-15T08:48:40;0.00;;;0.00;;
4186;SDS011;2107;52.306;10.484;2023-02-15T08:51:10;0.00;;;0.00;;
4186;SDS011;2107;52.306;10.484;2023-02-15T08:53:39;0.00;;;0.00;;
4186;SDS011;2107;52.306;10.484;2023-02-15T08:56:07;0.00;;;0.00;;
4186;SDS011;2107;52.306;10.484;2023-02-15T08:58:35;0.20;;;0.20;;
4186;SDS011;2107;52.306;10.484;2023-02-15T09:01:07;0.20;;;0.20;;
4186;SDS011;2107;52.306;10.484;2023-02-15T09:03:35;0.20;;;0.20;;
4186;SDS011;2107;52.306;10.484;2023-02-15T09:06:02;0.60;;;0.60;;
4186;SDS011;2107;52.306;10.484;2023-02-15T09:08:30;0.80;;;0.80;;
4186;SDS011;2107;52.306;10.484;2023-02-15T09:11:04;1.03;;;1.03;;
4186;SDS011;2107;52.306;10.484;2023-02-15T09:13:32;1.70;;;1.70;;
4186;SDS011;2107;52.306;10.484;2023-02-15T09:16:00;1.70;;;1.70;;
4186;SDS011;2107;52.306;10.484;2023-02-15T09:18:29;2.40;;;2.40;;
4186;SDS011;2107;52.306;10.484;2023-02-15T09:20:56;2.10;;;2.10;;
4186;SDS011;2107;52.306;10.484;2023-02-15T09:23:30;2.20;;;2.20;;
4186;SDS011;2107;52.306;10.484;2023-02-15T09:26:01;1.47;;;1.47;;
4186;SDS011;2107;52.306;10.484;2023-02-15T09:28:28;0.90;;;0.90;;
4186;SDS011;2107;52.306;10.484;2023-02-15T09:30:55;0.80;;;0.80;;
4186;SDS011;2107;52.306;10.484;2023-02-15T09:33:22;0.60;;;0.60;;
4186;SDS011;2107;52.306;10.484;2023-02-15T09:35:50;0.60;;;0.60;;
4186;SDS011;2107;52.306;10.484;2023-02-15T09:38:17;0.70;;;0.70;;
4186;SDS011;2107;52.306;10.484;2023-02-15T09:40:48;0.70;;;0.70;;
4186;SDS011;2107;52.306;10.484;2023-02-15T09:43:27;0.80;;;0.80;;
4186;SDS011;2107;52.306;10.484;2023-02-15T09:46:06;0.90;;;0.90;;
4186;SDS011;2107;52.306;10.484;2023-02-15T09:48:46;1.00;;;1.00;;
4186;SDS011;2107;52.306;10.484;2023-02-15T09:54:23;0.70;;;0.70;;
4186;SDS011;2107;52.306;10.484;2023-02-15T09:57:02;0.80;;;0.80;;
4186;SDS011;2107;52.306;10.484;2023-02-15T09:59:38;0.90;;;0.90;;
4186;SDS011;2107;52.306;10.484;2023-02-15T10:02:14;0.80;;;0.80;;
4186;SDS011;2107;52.306;10.484;2023-02-15T10:04:54;0.67;;;0.67;;
4186;SDS011;2107;52.306;10.484;2023-02-15T10:07:39;0.60;;;0.60;;
4186;SDS011;2107;52.306;10.484;2023-02-15T10:10:34;0.90;;;0.90;;
4186;SDS011;2107;52.306;10.484;2023-02-15T10:13:15;0.60;;;0.60;;
4186;SDS011;2107;52.306;10.484;2023-02-15T10:15:57;0.60;;;0.60;;
4186;SDS011;2107;52.306;10.484;2023-02-15T10:18:39;0.50;;;0.50;;
4186;SDS011;2107;52.306;10.484;2023-02-15T10:21:21;0.50;;;0.50;;
4186;SDS011;2107;52.306;10.484;2023-02-15T10:24:00;0.40;;;0.40;;
4186;SDS011;2107;52.306;10.484;2023-02-15T10:26:49;0.40;;;0.40;;
4186;SDS011;2107;52.306;10.484;2023-02-15T10:29:22;0.30;;;0.30;;
4186;SDS011;2107;52.306;10.484;2023-02-15T10:31:55;0.30;;;0.30;;
4186;SDS011;2107;52.306;10.484;2023-02-15T10:34:33;0.50;;;0.50;;
4186;SDS011;2107;52.306;10.484;2023-02-15T10:37:09;0.40;;;0.40;;
4186;SDS011;2107;52.306;10.484;2023-02-15T10:39:52;0.40;;;0.40;;
4186;SDS011;2107;52.306;10.484;2023-02-15T10:42:29;0.50;;;0.50;;
4186;SDS011;2107;52.306;10.484;2023-02-15T10:45:09;0.50;;;0.50;;
4186;SDS011;2107;52.306;10.484;2023-02-15T10:47:48;0.60;;;0.60;;
4186;SDS011;2107;52.306;10.484;2023-02-15T10:50:26;0.70;;;0.70;;
4186;SDS011;2107;52.306;10.484;2023-02-15T10:53:09;0.60;;;0.60;;
4186;SDS011;2107;52.306;10.484;2023-02-15T10:55:49;0.60;;;0.60;;
4186;SDS011;2107;52.306;10.484;2023-02-15T10:58:24;0.60;;;0.60;;
4186;SDS011;2107;52.306;10.484;2023-02-15T11:01:03;0.53;;;0.53;;
4186;SDS011;2107;52.306;10.484;2023-02-15T11:03:40;0.60;;;0.60;;
4186;SDS011;2107;52.306;10.484;2023-02-15T11:06:17;0.60;;;0.60;;
4186;SDS011;2107;52.306;10.484;2023-02-15T11:08:46;0.60;;;0.60;;
4186;SDS011;2107;52.306;10.484;2023-02-15T11:11:19;0.60;;;0.60;;
4186;SDS011;2107;52.306;10.484;2023-02-15T11:13:51;0.60;;;0.60;;
4186;SDS011;2107;52.306;10.484;2023-02-15T11:16:24;0.60;;;0.60;;
4186;SDS011;2107;52.306;10.484;2023-02-15T11:18:55;0.50;;;0.50;;
4186;SDS011;2107;52.306;10.484;2023-02-15T11:21:26;0.60;;;0.60;;
4186;SDS011;2107;52.306;10.484;2023-02-15T11:23:58;0.70;;;0.70;;
4186;SDS011;2107;52.306;10.484;2023-02-15T11:26:27;0.70;;;0.70;;
4186;SDS011;2107;52.306;10.484;2023-02-15T11:28:59;0.60;;;0.60;;
4186;SDS011;2107;52.306;10.484;2023-02-15T11:31:35;0.73;;;0.73;;
4186;SDS011;2107;52.306;10.484;2023-02-15T11:34:11;0.70;;;0.70;;
4186;SDS011;2107;52.306;10.484;2023-02-15T11:36:43;0.70;;;0.70;;
4186;SDS011;2107;52.306;10.484;2023-02-15T11:39:13;0.77;;;0.77;;
4186;SDS011;2107;52.306;10.484;2023-02-15T11:41:44;0.80;;;0.80;;
4186;SDS011;2107;52.306;10.484;2023-02-15T11:44:17;0.90;;;0.90;;
4186;SDS011;2107;52.306;10.484;2023-02-15T11:46:50;0.90;;;0.90;;
4186;SDS011;2107;52.306;10.484;2023-02-15T11:49:21;1.00;;;1.00;;
4186;SDS011;2107;52.306;10.484;2023-02-15T11:51:51;0.87;;;0.87;;
4186;SDS011;2107;52.306;10.484;2023-02-15T11:54:19;0.93;;;0.93;;
4186;SDS011;2107;52.306;10.484;2023-02-15T11:56:52;0.90;;;0.90;;
4186;SDS011;2107;52.306;10.484;2023-02-15T11:59:21;0.90;;;0.90;;
4186;SDS011;2107;52.306;10.484;2023-02-15T12:01:55;0.97;;;0.97;;
4186;SDS011;2107;52.306;10.484;2023-02-15T12:04:23;0.80;;;0.80;;
4186;SDS011;2107;52.306;10.484;2023-02-15T12:06:53;0.63;;;0.63;;
4186;SDS011;2107;52.306;10.484;2023-02-15T12:09:25;0.70;;;0.70;;
4186;SDS011;2107;52.306;10.484;2023-02-15T12:14:46;0.70;;;0.70;;
4186;SDS011;2107;52.306;10.484;2023-02-15T12:17:16;0.70;;;0.70;;
4186;SDS011;2107;52.306;10.484;2023-02-15T12:19:43;0.60;;;0.60;;
4186;SDS011;2107;52.306;10.484;2023-02-15T12:22:18;0.90;;;0.90;;
4186;SDS011;2107;52.306;10.484;2023-02-15T12:24:49;0.70;;;0.70;;
4186;SDS011;2107;52.306;10.484;2023-02-15T12:27:19;0.60;;;0.60;;
4186;SDS011;2107;52.306;10.484;2023-02-15T12:29:48;0.60;;;0.60;;
4186;SDS011;2107;52.306;10.484;2023-02-15T12:32:19;0.80;;;0.80;;
4186;SDS011;2107;52.306;10.484;2023-02-15T12:34:49;0.60;;;0.60;;
4186;SDS011;2107;52.306;10.484;2023-02-15T12:37:19;0.70;;;0.70;;
4186;SDS011;2107;52.306;10.484;2023-02-15T12:39:52;0.77;;;0.77;;
4186;SDS011;2107;52.306;10.484;2023-02-15T12:42:21;0.60;;;0.60;;
4186;SDS011;2107;52.306;10.484;2023-02-15T12:44:52;0.60;;;0.60;;
4186;SDS011;2107;52.306;10.484;2023-02-15T12:47:23;0.60;;;0.60;;
4186;SDS011;2107;52.306;10.484;2023-02-15T12:50:05;0.63;;;0.63;;
4186;SDS011;2107;52.306;10.484;2023-02-15T12:52:48;0.60;;;0.60;;
4186;SDS011;2107;52.306;10.484;2023-02-15T12:55:21;0.73;;;0.73;;
4186;SDS011;2107;52.306;10.484;2023-02-15T12:58:04;0.80;;;0.80;;
4186;SDS011;2107;52.306;10.484;2023-02-15T13:00:32;0.70;;;0.70;;
4186;SDS011;2107;52.306;10.484;2023-02-15T13:03:01;1.00;;;1.00;;
4186;SDS011;2107;52.306;10.484;2023-02-15T13:05:30;0.90;;;0.90;;
4186;SDS011;2107;52.306;10.484;2023-02-15T13:08:00;0.70;;;0.70;;
4186;SDS011;2107;52.306;10.484;2023-02-15T13:10:31;0.67;;;0.67;;
4186;SDS011;2107;52.306;10.484;2023-02-15T13:13:01;0.90;;;0.90;;
4186;SDS011;2107;52.306;10.484;2023-02-15T13:15:35;0.93;;;0.93;;
4186;SDS011;2107;52.306;10.484;2023-02-15T13:18:10;0.80;;;0.80;;
4186;SDS011;2107;52.306;10.484;2023-02-15T13:20:41;0.90;;;0.90;;
4186;SDS011;2107;52.306;10.484;2023-02-15T13:23:13;1.10;;;1.10;;
4186;SDS011;2107;52.306;10.484;2023-02-15T13:25:49;1.10;;;1.10;;
4186;SDS011;2107;52.306;10.484;2023-02-15T13:28:17;1.00;;;1.00;;
4186;SDS011;2107;52.306;10.484;2023-02-15T13:30:48;1.20;;;1.20;;
4186;SDS011;2107;52.306;10.484;2023-02-15T13:33:19;1.10;;;1.10;;
4186;SDS011;2107;52.306;10.484;2023-02-15T13:35:55;1.10;;;1.10;;
4186;SDS011;2107;52.306;10.484;2023-02-15T13:38:35;0.97;;;0.97;;
4186;SDS011;2107;52.306;10.484;2023-02-15T13:41:12;0.87;;;0.87;;
4186;SDS011;2107;52.306;10.484;2023-02-15T13:43:44;0.80;;;0.80;;
4186;SDS011;2107;52.306;10.484;2023-02-15T13:46:21;0.90;;;0.90;;
4186;SDS011;2107;52.306;10.484;2023-02-15T13:49:00;0.90;;;0.90;;
4186;SDS011;2107;52.306;10.484;2023-02-15T13:51:35;1.10;;;1.10;;
4186;SDS011;2107;52.306;10.484;2023-02-15T13:54:11;0.90;;;0.90;;
4186;SDS011;2107;52.306;10.484;2023-02-15T13:56:58;0.93;;;0.93;;
4186;SDS011;2107;52.306;10.484;2023-02-15T13:59:37;0.87;;;0.87;;
4186;SDS011;2107;52.306;10.484;2023-02-15T14:02:23;1.00;;;1.00;;
4186;SDS011;2107;52.306;10.484;2023-02-15T14:08:04;1.00;;;1.00;;
4186;SDS011;2107;52.306;10.484;2023-02-15T14:10:46;1.00;;;1.00;;
4186;SDS011;2107;52.306;10.484;2023-02-15T14:13:32;1.30;;;1.30;;
4186;SDS011;2107;52.306;10.484;2023-02-15T14:16:27;0.80;;;0.80;;
4186;SDS011;2107;52.306;10.484;2023-02-15T14:19:01;0.77;;;0.77;;
4186;SDS011;2107;52.306;10.484;2023-02-15T14:21:42;0.70;;;0.70;;
4186;SDS011;2107;52.306;10.484;2023-02-15T14:24:17;0.80;;;0.80;;
4186;SDS011;2107;52.306;10.484;2023-02-15T14:26:54;0.90;;;0.90;;
4186;SDS011;2107;52.306;10.484;2023-02-15T14:29:33;0.80;;;0.80;;
4186;SDS011;2107;52.306;10.484;2023-02-15T14:32:11;0.90;;;0.90;;
4186;SDS011;2107;52.306;10.484;2023-02-15T14:34:44;0.90;;;0.90;;
4186;SDS011;2107;52.306;10.484;2023-02-15T14:37:18;1.10;;;1.10;;
4186;SDS011;2107;52.306;10.484;2023-02-15T14:39:51;0.90;;;0.90;;
4186;SDS011;2107;52.306;10.484;2023-02-15T14:42:42;1.00;;;1.00;;
4186;SDS011;2107;52.306;10.484;2023-02-15T14:45:17;1.00;;;1.00;;
4186;SDS011;2107;52.306;10.484;2023-02-15T14:47:51;0.83;;;0.83;;
4186;SDS011;2107;52.306;10.484;2023-02-15T14:56:17;0.90;;;0.90;;
4186;SDS011;2107;52.306;10.484;2023-02-15T14:59:01;0.90;;;0.90;;
4186;SDS011;2107;52.306;10.484;2023-02-15T15:01:56;1.00;;;1.00;;
4186;SDS011;2107;52.306;10.484;2023-02-15T15:04:29;1.00;;;1.00;;
4186;SDS011;2107;52.306;10.484;2023-02-15T15:06:59;0.90;;;0.90;;
4186;SDS011;2107;52.306;10.484;2023-02-15T15:09:33;0.83;;;0.83;;
4186;SDS011;2107;52.306;10.484;2023-02-15T15:15:04;0.90;;;0.90;;
4186;SDS011;2107;52.306;10.484;2023-02-15T15:17:52;1.00;;;1.00;;
4186;SDS011;2107;52.306;10.484;2023-02-15T15:20:37;1.10;;;1.10;;
4186;SDS011;2107;52.306;10.484;2023-02-15T15:26:28;1.00;;;1.00;;
4186;SDS011;2107;52.306;10.484;2023-02-15T15:29:01;0.90;;;0.90;;
4186;SDS011;2107;52.306;10.484;2023-02-15T15:31:36;1.10;;;1.10;;
4186;SDS011;2107;52.306;10.484;2023-02-15T15:40:41;1.00;;;1.00;;
4186;SDS011;2107;52.306;10.484;2023-02-15T15:46:41;1.10;;;1.10;;
4186;SDS011;2107;52.306;10.484;2023-02-15T15:49:20;1.20;;;1.20;;
4186;SDS011;2107;52.306;10.484;2023-02-15T15:51:47;1.10;;;1.10;;
4186;SDS011;2107;52.306;10.484;2023-02-15T15:54:16;1.40;;;1.40;;
4186;SDS011;2107;52.306;10.484;2023-02-15T15:56:47;1.00;;;1.00;;
4186;SDS011;2107;52.306;10.484;2023-02-15T15:59:19;1.17;;;1.17;;
4186;SDS011;2107;52.306;10.484;2023-02-15T16:01:48;1.10;;;1.10;;